Aviation Digital Data Service (ADDS)

Output produced by METARs form (1521 UTC 20 March 2019)
found at http://www.aviationweather.gov/metar/data/
 
METAR text: OEMA 201500Z 24008KT CAVOK 31/11 Q1009 NOSIG
Conditions at: OEMA (MADINAH INTL ARP, SA) observed 1500 UTC 20 March 2019
Temperature: 31.0°C (88°F)
Dewpoint: 11.0°C (52°F) [RH = 29%]
Pressure (altimeter): 29.79 inches Hg (1009.0 mb)
Winds: from the WSW (240 degrees) at 9 MPH (8 knots; 4.1 m/s)
Visibility: 6 or more miles (10+ km)
Ceiling: ceiling and visibility are OK
Clouds: unknown
Weather: no significant weather observed at this time

METAR text: OEMA 201400Z 20006KT CAVOK 32/10 Q1008 NOSIG
Conditions at: OEMA (MADINAH INTL ARP, SA) observed 1400 UTC 20 March 2019
Temperature: 32.0°C (90°F)
Dewpoint: 10.0°C (50°F) [RH = 26%]
Pressure (altimeter): 29.76 inches Hg (1008.0 mb)
Winds: from the SSW (200 degrees) at 7 MPH (6 knots; 3.1 m/s)
Visibility: 6 or more miles (10+ km)
Ceiling: ceiling and visibility are OK
Clouds: unknown
Weather: no significant weather observed at this time

METAR text: OEMA 201300Z 26012KT 9999 FEW040 32/07 Q1009 NOSIG
Conditions at: OEMA (MADINAH INTL ARP, SA) observed 1300 UTC 20 March 2019
Temperature: 32.0°C (90°F)
Dewpoint: 7.0°C (45°F) [RH = 21%]
Pressure (altimeter): 29.79 inches Hg (1009.0 mb)
Winds: from the W (260 degrees) at 14 MPH (12 knots; 6.2 m/s)
Visibility: 6 or more miles (10+ km)
Ceiling: at least 12,000 feet AGL
Clouds: few clouds at 4000 feet AGL
Weather: no significant weather observed at this time

METAR text: OEMA 201200Z 18006KT 9999 FEW040 31/10 Q1009 NOSIG
Conditions at: OEMA (MADINAH INTL ARP, SA) observed 1200 UTC 20 March 2019
Temperature: 31.0°C (88°F)
Dewpoint: 10.0°C (50°F) [RH = 27%]
Pressure (altimeter): 29.79 inches Hg (1009.0 mb)
Winds: from the S (180 degrees) at 7 MPH (6 knots; 3.1 m/s)
Visibility: 6 or more miles (10+ km)
Ceiling: at least 12,000 feet AGL
Clouds: few clouds at 4000 feet AGL
Weather: no significant weather observed at this time

METAR text: OEMA 201100Z 27010KT 9999 FEW040 SCT100 30/10 Q1010 NOSIG
Conditions at: OEMA (MADINAH INTL ARP, SA) observed 1100 UTC 20 March 2019
Temperature: 30.0°C (86°F)
Dewpoint: 10.0°C (50°F) [RH = 29%]
Pressure (altimeter): 29.82 inches Hg (1010.0 mb)
Winds: from the W (270 degrees) at 12 MPH (10 knots; 5.1 m/s)
Visibility: 6 or more miles (10+ km)
Ceiling: at least 12,000 feet AGL
Clouds: few clouds at 4000 feet AGL
scattered clouds at 10000 feet AGL
Weather: no significant weather observed at this time

METAR text: OEMA 201000Z 21010KT 9999 FEW040 SCT100 30/10 Q1010 NOSIG
Conditions at: OEMA (MADINAH INTL ARP, SA) observed 1000 UTC 20 March 2019
Temperature: 30.0°C (86°F)
Dewpoint: 10.0°C (50°F) [RH = 29%]
Pressure (altimeter): 29.82 inches Hg (1010.0 mb)
Winds: from the SSW (210 degrees) at 12 MPH (10 knots; 5.1 m/s)
Visibility: 6 or more miles (10+ km)
Ceiling: at least 12,000 feet AGL
Clouds: few clouds at 4000 feet AGL
scattered clouds at 10000 feet AGL
Weather: no significant weather observed at this time

METAR text: OEMA 200900Z 24010KT 9999 FEW040 SCT100 29/12 Q1012 NOSIG
Conditions at: OEMA (MADINAH INTL ARP, SA) observed 0900 UTC 20 March 2019
Temperature: 29.0°C (84°F)
Dewpoint: 12.0°C (54°F) [RH = 35%]
Pressure (altimeter): 29.88 inches Hg (1012.0 mb)
Winds: from the WSW (240 degrees) at 12 MPH (10 knots; 5.1 m/s)
Visibility: 6 or more miles (10+ km)
Ceiling: at least 12,000 feet AGL
Clouds: few clouds at 4000 feet AGL
scattered clouds at 10000 feet AGL
Weather: no significant weather observed at this time

METAR text: OEMA 200800Z 00000KT CAVOK 28/09 Q1012 NOSIG
Conditions at: OEMA (MADINAH INTL ARP, SA) observed 0800 UTC 20 March 2019
Temperature: 28.0°C (82°F)
Dewpoint: 9.0°C (48°F) [RH = 30%]
Pressure (altimeter): 29.88 inches Hg (1012.0 mb)
Winds: calm
Visibility: 6 or more miles (10+ km)
Ceiling: ceiling and visibility are OK
Clouds: unknown
Weather: no significant weather observed at this time

METAR text: OEMA 200700Z 00000KT CAVOK 27/08 Q1012 NOSIG
Conditions at: OEMA (MADINAH INTL ARP, SA) observed 0700 UTC 20 March 2019
Temperature: 27.0°C (81°F)
Dewpoint: 8.0°C (46°F) [RH = 30%]
Pressure (altimeter): 29.88 inches Hg (1012.0 mb)
Winds: calm
Visibility: 6 or more miles (10+ km)
Ceiling: ceiling and visibility are OK
Clouds: unknown
Weather: no significant weather observed at this time

METAR text: OEMA 200600Z 00000KT CAVOK 25/08 Q1012 NOSIG
Conditions at: OEMA (MADINAH INTL ARP, SA) observed 0600 UTC 20 March 2019
Temperature: 25.0°C (77°F)
Dewpoint: 8.0°C (46°F) [RH = 34%]
Pressure (altimeter): 29.88 inches Hg (1012.0 mb)
Winds: calm
Visibility: 6 or more miles (10+ km)
Ceiling: ceiling and visibility are OK
Clouds: unknown
Weather: no significant weather observed at this time

METAR text: OEMA 200500Z 00000KT CAVOK 23/09 Q1012 NOSIG
Conditions at: OEMA (MADINAH INTL ARP, SA) observed 0500 UTC 20 March 2019
Temperature: 23.0°C (73°F)
Dewpoint: 9.0°C (48°F) [RH = 41%]
Pressure (altimeter): 29.88 inches Hg (1012.0 mb)
Winds: calm
Visibility: 6 or more miles (10+ km)
Ceiling: ceiling and visibility are OK
Clouds: unknown
Weather: no significant weather observed at this time

METAR text: OEMA 200400Z 00000KT CAVOK 22/09 Q1012 NOSIG
Conditions at: OEMA (MADINAH INTL ARP, SA) observed 0400 UTC 20 March 2019
Temperature: 22.0°C (72°F)
Dewpoint: 9.0°C (48°F) [RH = 43%]
Pressure (altimeter): 29.88 inches Hg (1012.0 mb)
Winds: calm
Visibility: 6 or more miles (10+ km)
Ceiling: ceiling and visibility are OK
Clouds: unknown
Weather: no significant weather observed at this time

METAR text: OEMA 200300Z 00000KT CAVOK 23/10 Q1011 NOSIG
Conditions at: OEMA (MADINAH INTL ARP, SA) observed 0300 UTC 20 March 2019
Temperature: 23.0°C (73°F)
Dewpoint: 10.0°C (50°F) [RH = 44%]
Pressure (altimeter): 29.85 inches Hg (1011.0 mb)
Winds: calm
Visibility: 6 or more miles (10+ km)
Ceiling: ceiling and visibility are OK
Clouds: unknown
Weather: no significant weather observed at this time

METAR text: OEMA 200200Z 00000KT CAVOK 23/09 Q1011 NOSIG
Conditions at: OEMA (MADINAH INTL ARP, SA) observed 0200 UTC 20 March 2019
Temperature: 23.0°C (73°F)
Dewpoint: 9.0°C (48°F) [RH = 41%]
Pressure (altimeter): 29.85 inches Hg (1011.0 mb)
Winds: calm
Visibility: 6 or more miles (10+ km)
Ceiling: ceiling and visibility are OK
Clouds: unknown
Weather: no significant weather observed at this time

METAR text: OEMA 200100Z 00000KT CAVOK 24/10 Q1011 NOSIG
Conditions at: OEMA (MADINAH INTL ARP, SA) observed 0100 UTC 20 March 2019
Temperature: 24.0°C (75°F)
Dewpoint: 10.0°C (50°F) [RH = 41%]
Pressure (altimeter): 29.85 inches Hg (1011.0 mb)
Winds: calm
Visibility: 6 or more miles (10+ km)
Ceiling: ceiling and visibility are OK
Clouds: unknown
Weather: no significant weather observed at this time

METAR text: OEMA 200000Z 00000KT CAVOK 24/10 Q1011 NOSIG
Conditions at: OEMA (MADINAH INTL ARP, SA) observed 0000 UTC 20 March 2019
Temperature: 24.0°C (75°F)
Dewpoint: 10.0°C (50°F) [RH = 41%]
Pressure (altimeter): 29.85 inches Hg (1011.0 mb)
Winds: calm
Visibility: 6 or more miles (10+ km)
Ceiling: ceiling and visibility are OK
Clouds: unknown
Weather: no significant weather observed at this time

METAR text: OEMA 192300Z 00000KT 9000 SKC 25/10 Q1012 NOSIG
Conditions at: OEMA (MADINAH INTL ARP, SA) observed 2300 UTC 19 March 2019
Temperature: 25.0°C (77°F)
Dewpoint: 10.0°C (50°F) [RH = 39%]
Pressure (altimeter): 29.88 inches Hg (1012.0 mb)
Winds: calm
Visibility: 6 miles ( 9 km)
Ceiling: at least 12,000 feet AGL
Clouds: clear skies
Weather: no significant weather observed at this time

METAR text: OEMA 192200Z 26004KT 9000 SKC 25/10 Q1012 NOSIG
Conditions at: OEMA (MADINAH INTL ARP, SA) observed 2200 UTC 19 March 2019
Temperature: 25.0°C (77°F)
Dewpoint: 10.0°C (50°F) [RH = 39%]
Pressure (altimeter): 29.88 inches Hg (1012.0 mb)
Winds: from the W (260 degrees) at 5 MPH (4 knots; 2.1 m/s)
Visibility: 6 miles ( 9 km)
Ceiling: at least 12,000 feet AGL
Clouds: clear skies
Weather: no significant weather observed at this time

METAR text: OEMA 192100Z 24004KT 8000 SKC 26/10 Q1012 NOSIG
Conditions at: OEMA (MADINAH INTL ARP, SA) observed 2100 UTC 19 March 2019
Temperature: 26.0°C (79°F)
Dewpoint: 10.0°C (50°F) [RH = 37%]
Pressure (altimeter): 29.88 inches Hg (1012.0 mb)
Winds: from the WSW (240 degrees) at 5 MPH (4 knots; 2.1 m/s)
Visibility: 5 miles ( 8 km)
Ceiling: at least 12,000 feet AGL
Clouds: clear skies
Weather: no significant weather observed at this time

METAR text: OEMA 192000Z 00000KT 8000 SKC 27/09 Q1013 NOSIG
Conditions at: OEMA (MADINAH INTL ARP, SA) observed 2000 UTC 19 March 2019
Temperature: 27.0°C (81°F)
Dewpoint: 9.0°C (48°F) [RH = 32%]
Pressure (altimeter): 29.91 inches Hg (1013.0 mb)
Winds: calm
Visibility: 5 miles ( 8 km)
Ceiling: at least 12,000 feet AGL
Clouds: clear skies
Weather: no significant weather observed at this time

METAR text: OEMA 191900Z 24006KT 9000 NSC 27/08 Q1013 NOSIG
Conditions at: OEMA (MADINAH INTL ARP, SA) observed 1900 UTC 19 March 2019
Temperature: 27.0°C (81°F)
Dewpoint: 8.0°C (46°F) [RH = 30%]
Pressure (altimeter): 29.91 inches Hg (1013.0 mb)
Winds: from the WSW (240 degrees) at 7 MPH (6 knots; 3.1 m/s)
Visibility: 6 miles ( 9 km)
Ceiling: at least 12,000 feet AGL
Clouds: sky clear below 12,000 feet AGL
Weather: no significant weather observed at this time

METAR text: OEMA 191800Z 26003KT 7000 NSC 28/00 Q1013 NOSIG
Conditions at: OEMA (MADINAH INTL ARP, SA) observed 1800 UTC 19 March 2019
Temperature: 28.0°C (82°F)
Dewpoint: 0.0°C (32°F) [RH = 16%]
Pressure (altimeter): 29.91 inches Hg (1013.0 mb)
Winds: from the W (260 degrees) at 3 MPH (3 knots; 1.5 m/s)
Visibility: 4 miles ( 7 km)
Ceiling: at least 12,000 feet AGL
Clouds: sky clear below 12,000 feet AGL
Weather: no significant weather observed at this time

METAR text: OEMA 191700Z 31002KT 6000 NSC 28/00 Q1012 NOSIG
Conditions at: OEMA (MADINAH INTL ARP, SA) observed 1700 UTC 19 March 2019
Temperature: 28.0°C (82°F)
Dewpoint: 0.0°C (32°F) [RH = 16%]
Pressure (altimeter): 29.88 inches Hg (1012.0 mb)
Winds: from the NW (310 degrees) at 2 MPH (2 knots; 1.0 m/s)
Visibility: 4 miles ( 6 km)
Ceiling: at least 12,000 feet AGL
Clouds: sky clear below 12,000 feet AGL
Weather: no significant weather observed at this time

METAR text: OEMA 191600Z 32005KT 6000 NSC 29/00 Q1011 NOSIG
Conditions at: OEMA (MADINAH INTL ARP, SA) observed 1600 UTC 19 March 2019
Temperature: 29.0°C (84°F)
Dewpoint: 0.0°C (32°F) [RH = 15%]
Pressure (altimeter): 29.85 inches Hg (1011.0 mb)
Winds: from the NW (320 degrees) at 6 MPH (5 knots; 2.6 m/s)
Visibility: 4 miles ( 6 km)
Ceiling: at least 12,000 feet AGL
Clouds: sky clear below 12,000 feet AGL
Weather: no significant weather observed at this time

METAR text: OEMA 191500Z 29006KT 6000 NSC 30/00 Q1011 NOSIG
Conditions at: OEMA (MADINAH INTL ARP, SA) observed 1500 UTC 19 March 2019
Temperature: 30.0°C (86°F)
Dewpoint: 0.0°C (32°F) [RH = 14%]
Pressure (altimeter): 29.85 inches Hg (1011.0 mb)
Winds: from the WNW (290 degrees) at 7 MPH (6 knots; 3.1 m/s)
Visibility: 4 miles ( 6 km)
Ceiling: at least 12,000 feet AGL
Clouds: sky clear below 12,000 feet AGL
Weather: no significant weather observed at this time

METAR text: OEMA 191400Z 31002KT 6000 NSC 30/M01 Q1011 NOSIG
Conditions at: OEMA (MADINAH INTL ARP, SA) observed 1400 UTC 19 March 2019
Temperature: 30.0°C (86°F)
Dewpoint: -1.0°C (30°F) [RH = 13%]
Pressure (altimeter): 29.85 inches Hg (1011.0 mb)
Winds: from the NW (310 degrees) at 2 MPH (2 knots; 1.0 m/s)
Visibility: 4 miles ( 6 km)
Ceiling: at least 12,000 feet AGL
Clouds: sky clear below 12,000 feet AGL
Weather: no significant weather observed at this time

METAR text: OEMA 191300Z 35002KT 5000 DU NSC 30/M03 Q1011 NOSIG
Conditions at: OEMA (MADINAH INTL ARP, SA) observed 1300 UTC 19 March 2019
Temperature: 30.0°C (86°F)
Dewpoint: -3.0°C (27°F) [RH = 12%]
Pressure (altimeter): 29.85 inches Hg (1011.0 mb)
Winds: from the N (350 degrees) at 2 MPH (2 knots; 1.0 m/s)
Visibility: 3 miles ( 5 km)
Ceiling: at least 12,000 feet AGL
Clouds: sky clear below 12,000 feet AGL
Weather: DU  (widespread dust)

METAR text: OEMA 191200Z 33003KT 5000 DU SCT045 30/M04 Q1012 NOSIG
Conditions at: OEMA (MADINAH INTL ARP, SA) observed 1200 UTC 19 March 2019
Temperature: 30.0°C (86°F)
Dewpoint: -4.0°C (25°F) [RH = 11%]
Pressure (altimeter): 29.88 inches Hg (1012.0 mb)
Winds: from the NNW (330 degrees) at 3 MPH (3 knots; 1.5 m/s)
Visibility: 3 miles ( 5 km)
Ceiling: at least 12,000 feet AGL
Clouds: scattered clouds at 4500 feet AGL
Weather: DU  (widespread dust)

METAR text: OEMA 191100Z 00000KT 5000 DU SCT045 30/M04 Q1013 NOSIG
Conditions at: OEMA (MADINAH INTL ARP, SA) observed 1100 UTC 19 March 2019
Temperature: 30.0°C (86°F)
Dewpoint: -4.0°C (25°F) [RH = 11%]
Pressure (altimeter): 29.91 inches Hg (1013.0 mb)
Winds: calm
Visibility: 3 miles ( 5 km)
Ceiling: at least 12,000 feet AGL
Clouds: scattered clouds at 4500 feet AGL
Weather: DU  (widespread dust)

METAR text: OEMA 191000Z 04005KT 5000 DU SCT045 28/M06 Q1014 NOSIG
Conditions at: OEMA (MADINAH INTL ARP, SA) observed 1000 UTC 19 March 2019
Temperature: 28.0°C (82°F)
Dewpoint: -6.0°C (21°F) [RH = 10%]
Pressure (altimeter): 29.94 inches Hg (1014.0 mb)
Winds: from the NE (40 degrees) at 6 MPH (5 knots; 2.6 m/s)
Visibility: 3 miles ( 5 km)
Ceiling: at least 12,000 feet AGL
Clouds: scattered clouds at 4500 feet AGL
Weather: DU  (widespread dust)

METAR text: OEMA 190900Z 12008KT 5000 DU FEW045 26/M06 Q1015 TEMPO 4000
Conditions at: OEMA (MADINAH INTL ARP, SA) observed 0900 UTC 19 March 2019
Temperature: 26.0°C (79°F)
Dewpoint: -6.0°C (21°F) [RH = 12%]
Pressure (altimeter): 29.97 inches Hg (1015.0 mb)
Winds: from the ESE (120 degrees) at 9 MPH (8 knots; 4.1 m/s)
Visibility: 3 miles ( 5 km)
Ceiling: at least 12,000 feet AGL
Clouds: few clouds at 4500 feet AGL
Weather: DU  (widespread dust)

METAR text: OEMA 190800Z 12010KT 5000 DU FEW045 25/M06 Q1016 NOSIG
Conditions at: OEMA (MADINAH INTL ARP, SA) observed 0800 UTC 19 March 2019
Temperature: 25.0°C (77°F)
Dewpoint: -6.0°C (21°F) [RH = 12%]
Pressure (altimeter): 30.00 inches Hg (1016.0 mb)
Winds: from the ESE (120 degrees) at 12 MPH (10 knots; 5.1 m/s)
Visibility: 3 miles ( 5 km)
Ceiling: at least 12,000 feet AGL
Clouds: few clouds at 4500 feet AGL
Weather: DU  (widespread dust)

METAR text: OEMA 190700Z 09011KT 9000 FEW045 23/M07 Q1016 TEMPO 5000
Conditions at: OEMA (MADINAH INTL ARP, SA) observed 0700 UTC 19 March 2019
Temperature: 23.0°C (73°F)
Dewpoint: -7.0°C (19°F) [RH = 13%]
Pressure (altimeter): 30.00 inches Hg (1016.0 mb)
Winds: from the E (90 degrees) at 13 MPH (11 knots; 5.7 m/s)
Visibility: 6 miles ( 9 km)
Ceiling: at least 12,000 feet AGL
Clouds: few clouds at 4500 feet AGL
Weather: no significant weather observed at this time

METAR text: OEMA 190600Z 09010KT CAVOK 21/M07 Q1017 NOSIG
Conditions at: OEMA (MADINAH INTL ARP, SA) observed 0600 UTC 19 March 2019
Temperature: 21.0°C (70°F)
Dewpoint: -7.0°C (19°F) [RH = 15%]
Pressure (altimeter): 30.03 inches Hg (1017.0 mb)
Winds: from the E (90 degrees) at 12 MPH (10 knots; 5.1 m/s)
Visibility: 6 or more miles (10+ km)
Ceiling: ceiling and visibility are OK
Clouds: unknown
Weather: no significant weather observed at this time

METAR text: OEMA 190500Z 08010KT CAVOK 20/M07 Q1016 NOSIG
Conditions at: OEMA (MADINAH INTL ARP, SA) observed 0500 UTC 19 March 2019
Temperature: 20.0°C (68°F)
Dewpoint: -7.0°C (19°F) [RH = 15%]
Pressure (altimeter): 30.00 inches Hg (1016.0 mb)
Winds: from the E (80 degrees) at 12 MPH (10 knots; 5.1 m/s)
Visibility: 6 or more miles (10+ km)
Ceiling: ceiling and visibility are OK
Clouds: unknown
Weather: no significant weather observed at this time

METAR text: OEMA 190400Z 07002KT CAVOK 18/M07 Q1016 NOSIG
Conditions at: OEMA (MADINAH INTL ARP, SA) observed 0400 UTC 19 March 2019
Temperature: 18.0°C (64°F)
Dewpoint: -7.0°C (19°F) [RH = 18%]
Pressure (altimeter): 30.00 inches Hg (1016.0 mb)
Winds: from the ENE (70 degrees) at 2 MPH (2 knots; 1.0 m/s)
Visibility: 6 or more miles (10+ km)
Ceiling: ceiling and visibility are OK
Clouds: unknown
Weather: no significant weather observed at this time

Forecast for: OEMA (MADINAH INTL ARP, SA)
Text: TAF OEMA 201100Z 2012/2118 26015KT 8000 NSC
Forecast period: 1200 to 1800 UTC 20 March 2019
Forecast type: FROM: standard forecast or significant change
Winds: from the W (260 degrees) at 17 MPH (15 knots; 7.7 m/s)
Visibility: 5 miles (8 km)
Ceiling: unknown
Clouds: missing
Weather: no significant weather forecast for this period
Text: BECMG 2018/2020 VRB03KT
Forecast period: 1800 UTC 20 March 2019 to 1800 UTC 21 March 2019
Forecast type: BECOMING: Conditions expected to become as follows by 2000 UTC 20 March 2019
Winds: variable direction winds at 3 MPH (3 knots; 1.5 m/s)
Visibility: 5 miles (8 km)
Ceiling: unknown
Clouds: missing
Weather: no significant weather forecast for this period